Time;durP1;ratioP1;P1;durP2;ratioP2;P2;SDS_P1;SDS_P2;PMS_P1;PMS_P2;Temp;Humidity;BMP_temperature;BMP_pressure;BME280_temperature;BME280_humidity;BME280_pressure;Samples;Min_cycle;Max_cycle;Signal;HPM_P1;HPM_P2
2021/03/16 00:01:37;;;;;;;10.02;9.02;;;;;;;7.53;100.00;99296.44;4918510;29;20047;-74
2021/03/16 00:04:23;;;;;;;10.43;9.27;;;;;;;7.70;100.00;99294.19;4918221;29;20028;-74
2021/03/16 00:07:09;;;;;;;10.35;9.35;;;;;;;8.08;100.00;99302.59;4918875;29;20434;-74
2021/03/16 00:09:54;;;;;;;10.73;9.73;;;;;;;7.73;100.00;99301.94;4918224;29;20046;-74
2021/03/16 00:12:40;;;;;;;10.85;9.85;;;;;;;7.66;100.00;99297.78;4918354;29;20028;-73
2021/03/16 00:15:26;;;;;;;10.60;9.60;;;;;;;7.73;100.00;99294.13;4905330;29;20028;-73
2021/03/16 00:18:15;;;;;;;10.20;9.20;;;;;;;7.44;100.00;99297.53;4918150;29;20091;-73
2021/03/16 00:21:01;;;;;;;9.88;8.98;;;;;;;7.41;100.00;99300.25;4917565;29;20416;-74
2021/03/16 00:23:48;;;;;;;10.68;9.68;;;;;;;7.50;100.00;99296.50;4917767;29;20095;-74
2021/03/16 00:26:34;;;;;;;10.45;9.27;;;;;;;7.13;100.00;99298.41;4918317;29;20044;-74
2021/03/16 00:29:19;;;;;;;10.18;8.82;;;;;;;7.46;100.00;99287.06;4904819;29;20025;-74
2021/03/16 00:32:06;;;;;;;9.65;8.77;;;;;;;7.67;100.00;99292.53;4918563;29;20032;-74
2021/03/16 00:34:51;;;;;;;9.50;8.70;;;;;;;7.96;100.00;99286.50;4917606;29;20031;-74
2021/03/16 00:37:37;;;;;;;9.85;8.95;;;;;;;7.64;100.00;99286.56;4917973;29;20027;-74
2021/03/16 00:40:23;;;;;;;9.98;8.98;;;;;;;7.85;100.00;99278.13;4917631;29;20064;-73
2021/03/16 00:43:08;;;;;;;10.00;9.00;;;;;;;7.42;100.00;99278.50;4918241;29;20029;-75
2021/03/16 00:45:54;;;;;;;9.45;8.55;;;;;;;7.76;100.00;99283.59;4917085;29;20067;-73
2021/03/16 00:48:40;;;;;;;9.85;8.27;;;;;;;7.60;100.00;99274.53;4919330;29;20039;-73
2021/03/16 00:51:27;;;;;;;8.88;8.02;;;;;;;7.49;100.00;99276.56;4917592;29;20094;-74
2021/03/16 00:54:13;;;;;;;10.35;9.35;;;;;;;7.22;100.00;99269.50;4904243;29;20115;-74
2021/03/16 00:56:59;;;;;;;8.85;8.05;;;;;;;7.55;100.00;99269.44;4904330;29;20043;-74
2021/03/16 00:59:44;;;;;;;9.85;8.95;;;;;;;6.96;100.00;99267.63;4917237;29;20032;-73
2021/03/16 01:02:30;;;;;;;10.75;9.80;;;;;;;7.19;100.00;99270.44;4918308;29;20377;-74
2021/03/16 01:05:16;;;;;;;10.88;9.80;;;;;;;7.45;100.00;99267.13;4917632;29;20098;-74
2021/03/16 01:08:02;;;;;;;10.55;9.55;;;;;;;7.18;100.00;99263.53;4918113;29;20042;-74
2021/03/16 01:10:50;;;;;;;10.23;9.27;;;;;;;7.31;100.00;99253.66;4916015;29;20425;-74
2021/03/16 01:13:36;;;;;;;11.52;10.43;;;;;;;7.12;100.00;99257.63;4918448;29;20107;-74
2021/03/16 01:16:22;;;;;;;10.77;9.75;;;;;;;7.47;100.00;99260.13;4916679;29;20063;-74
2021/03/16 01:19:08;;;;;;;9.77;8.88;;;;;;;7.18;100.00;99254.84;4918035;29;20043;-75
2021/03/16 01:21:53;;;;;;;11.20;10.00;;;;;;;7.01;100.00;99252.72;4917354;29;20047;-74
2021/03/16 01:24:39;;;;;;;10.85;9.68;;;;;;;7.22;100.00;99251.28;4918264;29;20035;-75
2021/03/16 02:51:57;;;;;;;16.95;13.65;;;;;;;7.10;100.00;99225.56;5986093;23;20113;31
2021/03/16 02:54:44;;;;;;;14.27;12.60;;;;;;;7.45;100.00;99233.25;4829936;29;20399;-74
2021/03/16 02:57:32;;;;;;;13.15;11.75;;;;;;;7.49;100.00;99220.09;4844813;29;20026;-74
2021/03/16 03:00:19;;;;;;;14.10;12.60;;;;;;;7.58;100.00;99229.41;4831618;29;20042;-74
2021/03/16 03:03:06;;;;;;;15.70;12.90;;;;;;;7.12;100.00;99219.41;4845085;29;20419;-76
2021/03/16 03:05:52;;;;;;;14.13;12.63;;;;;;;7.54;100.00;99226.03;4845228;29;20037;-74
2021/03/16 03:08:40;;;;;;;12.93;11.63;;;;;;;7.14;100.00;99235.00;4844714;29;20136;-75
2021/03/16 03:11:25;;;;;;;14.13;12.63;;;;;;;7.00;100.00;99248.41;4844511;29;20036;-75
2021/03/16 03:14:12;;;;;;;13.48;11.20;;;;;;;7.10;100.00;99252.47;4844635;29;20029;-75
2021/03/16 03:16:58;;;;;;;13.13;11.77;;;;;;;7.49;100.00;99263.53;4843766;29;20443;-75
2021/03/16 03:19:44;;;;;;;13.10;10.52;;;;;;;6.48;100.00;99271.44;4844875;29;20033;-74
2021/03/16 03:22:37;;;;;;;12.38;10.68;;;;;;;6.70;100.00;99266.53;4843667;29;20041;-73
2021/03/16 03:25:30;;;;;;;12.73;11.38;;;;;;;7.06;100.00;99266.47;4844677;29;20460;-74
2021/03/16 03:28:21;;;;;;;12.25;10.95;;;;;;;7.06;100.00;99257.78;4843739;29;20120;-73
2021/03/16 03:31:08;;;;;;;11.90;10.63;;;;;;;7.20;100.00;99255.69;4844443;29;20033;-73
2021/03/16 03:33:55;;;;;;;10.25;9.10;;;;;;;7.12;100.00;99258.47;4843430;29;20361;-74
2021/03/16 03:36:43;;;;;;;9.90;8.90;;;;;;;7.35;100.00;99261.31;4845133;29;20431;-74
2021/03/16 03:39:32;;;;;;;9.90;8.88;;;;;;;7.26;100.00;99256.38;4844814;29;20117;-73
2021/03/16 03:42:19;;;;;;;10.10;9.10;;;;;;;7.23;100.00;99261.66;4843511;29;20030;-75
2021/03/16 03:45:08;;;;;;;10.88;8.80;;;;;;;7.54;100.00;99266.84;4845126;29;20045;-74
2021/03/16 03:47:56;;;;;;;11.95;10.55;;;;;;;7.20;100.00;99246.09;4844079;29;20432;-73
2021/03/16 03:50:44;;;;;;;12.75;10.95;;;;;;;7.33;100.00;99257.91;4844188;29;20044;-74
2021/03/16 03:53:30;;;;;;;11.82;10.50;;;;;;;7.29;100.00;99256.28;4871659;29;20049;-74
2021/03/16 03:56:16;;;;;;;12.90;11.52;;;;;;;7.01;100.00;99254.47;4880574;29;20043;-73
2021/03/16 03:59:06;;;;;;;15.20;13.02;;;;;;;7.22;100.00;99253.88;4880190;29;20446;-75
2021/03/16 04:01:52;;;;;;;15.23;13.07;;;;;;;7.41;100.00;99257.69;4880815;29;20033;-74
2021/03/16 04:04:39;;;;;;;15.50;13.75;;;;;;;7.54;100.00;99261.66;4879492;29;20466;-73
2021/03/16 04:07:27;;;;;;;16.55;14.43;;;;;;;7.27;100.00;99252.84;4880460;29;20029;-73
2021/03/16 04:10:15;;;;;;;14.40;12.40;;;;;;;7.35;100.00;99260.47;4879958;29;20039;-73
2021/03/16 04:13:02;;;;;;;12.15;10.82;;;;;;;7.57;100.00;99264.19;4880794;29;20336;-74
2021/03/16 04:15:50;;;;;;;10.85;9.75;;;;;;;7.51;100.00;99269.56;4880307;29;20043;-74
2021/03/16 04:18:36;;;;;;;11.07;9.98;;;;;;;6.75;100.00;99273.34;4880334;29;20048;-74
2021/03/16 04:21:21;;;;;;;11.20;10.02;;;;;;;7.34;100.00;99272.63;4867638;29;20059;-73
2021/03/16 04:24:08;;;;;;;12.75;11.40;;;;;;;7.27;100.00;99271.09;4879984;29;20043;-74
2021/03/16 04:26:54;;;;;;;11.90;10.60;;;;;;;7.36;100.00;99273.44;4880724;29;20506;-74
2021/03/16 04:29:40;;;;;;;12.80;11.32;;;;;;;7.38;100.00;99270.78;4879730;29;20060;-74
2021/03/16 04:32:25;;;;;;;14.02;11.90;;;;;;;6.86;100.00;99270.47;4880128;29;20076;-74
2021/03/16 04:35:12;;;;;;;15.40;12.15;;;;;;;7.49;100.00;99266.16;4879684;29;20462;-74
2021/03/16 04:37:57;;;;;;;17.58;13.88;;;;;;;7.46;100.00;99261.00;4880011;29;20037;-74
2021/03/16 04:40:43;;;;;;;15.43;12.68;;;;;;;7.44;100.00;99265.44;4879635;29;20025;-74
2021/03/16 04:43:29;;;;;;;22.10;15.95;;;;;;;6.76;100.00;99271.59;4879667;29;20503;-74
2021/03/16 04:46:16;;;;;;;27.15;18.40;;;;;;;6.89;100.00;99262.59;4879322;29;20117;-74
2021/03/16 04:49:02;;;;;;;32.20;20.05;;;;;;;6.84;100.00;99269.66;4880226;29;20060;-74
2021/03/16 04:51:48;;;;;;;22.80;16.83;;;;;;;6.83;100.00;99265.38;4879151;29;20037;-74
2021/03/16 04:54:34;;;;;;;21.40;15.38;;;;;;;7.28;100.00;99266.75;4879725;29;20033;-75
2021/03/16 04:57:20;;;;;;;18.92;13.93;;;;;;;7.19;100.00;99261.78;4866154;29;20032;-74
2021/03/16 05:00:06;;;;;;;15.10;11.90;;;;;;;6.92;100.00;99255.56;4879364;29;20093;-74
2021/03/16 05:02:52;;;;;;;12.57;10.00;;;;;;;7.13;100.00;99272.34;4879595;29;20029;-73
2021/03/16 05:05:37;;;;;;;11.50;9.80;;;;;;;6.97;100.00;99263.25;4879004;29;20021;-75
2021/03/16 05:08:24;;;;;;;10.88;9.63;;;;;;;6.95;100.00;99265.88;4879736;29;20111;-74
2021/03/16 05:11:09;;;;;;;11.27;8.52;;;;;;;6.79;100.00;99277.56;4866389;29;20483;-75
2021/03/16 05:13:55;;;;;;;9.43;8.43;;;;;;;6.60;100.00;99272.88;4879734;29;20119;-74
2021/03/16 05:16:41;;;;;;;9.18;8.23;;;;;;;6.66;100.00;99286.59;4879147;29;20040;-75
2021/03/16 05:19:28;;;;;;;9.45;7.90;;;;;;;6.58;100.00;99283.31;4879617;29;20121;-74
2021/03/16 05:22:13;;;;;;;8.70;7.68;;;;;;;6.54;100.00;99286.03;4878776;29;20025;-74
2021/03/16 05:25:00;;;;;;;8.45;7.35;;;;;;;6.55;100.00;99285.16;4879102;29;20120;-74
2021/03/16 05:27:46;;;;;;;9.82;8.00;;;;;;;7.03;100.00;99286.53;4879249;29;20068;-74
2021/03/16 05:30:32;;;;;;;9.45;7.53;;;;;;;6.90;100.00;99291.19;4880374;29;20399;-74
2021/03/16 05:33:19;;;;;;;8.55;7.30;;;;;;;6.69;100.00;99283.91;4879044;29;20039;-73
2021/03/16 05:36:05;;;;;;;9.70;8.27;;;;;;;6.94;100.00;99284.13;4879664;29;20036;-73
2021/03/16 05:38:51;;;;;;;9.05;7.05;;;;;;;7.15;100.00;99276.63;4878952;29;20029;-74
2021/03/16 05:41:40;;;;;;;6.72;6.03;;;;;;;7.23;100.00;99287.69;4879366;29;20036;-74
2021/03/16 05:44:26;;;;;;;7.63;6.82;;;;;;;7.09;100.00;99288.97;4879557;29;20032;-75
2021/03/16 05:47:13;;;;;;;7.60;6.05;;;;;;;7.17;100.00;99282.66;4865680;29;20482;-75
2021/03/16 05:50:01;;;;;;;9.80;8.05;;;;;;;7.70;100.00;99283.75;4879813;29;20037;-74
2021/03/16 05:52:47;;;;;;;13.00;9.80;;;;;;;7.87;100.00;99279.78;4878591;29;20056;-74
2021/03/16 05:55:33;;;;;;;9.98;7.93;;;;;;;7.57;100.00;99272.84;4879053;29;20029;-75
2021/03/16 05:58:19;;;;;;;9.80;8.00;;;;;;;7.78;100.00;99282.66;4878753;29;20371;-74
2021/03/16 06:01:05;;;;;;;6.53;5.93;;;;;;;7.06;100.00;99276.00;4866622;29;20116;-76
2021/03/16 06:03:51;;;;;;;8.68;6.70;;;;;;;7.13;100.00;99278.44;4878560;29;20537;-74
2021/03/16 06:06:38;;;;;;;6.45;5.85;;;;;;;7.36;100.00;99277.81;4878723;29;20485;-74
2021/03/16 06:09:24;;;;;;;7.50;4.78;;;;;;;7.34;100.00;99288.25;4878728;29;20049;-75
2021/03/16 06:12:10;;;;;;;5.65;5.15;;;;;;;7.07;100.00;99281.19;4878721;29;20185;-76
2021/03/16 06:14:56;;;;;;;7.15;6.25;;;;;;;7.22;100.00;99288.59;4879374;29;20044;-75
2021/03/16 06:17:51;;;;;;;8.43;7.53;;;;;;;7.21;100.00;99294.72;4878491;29;20029;-74
2021/03/16 06:20:38;;;;;;;8.80;7.10;;;;;;;7.44;100.00;99275.84;4881943;29;20451;-75
2021/03/16 06:23:32;;;;;;;5.53;5.03;;;;;;;7.41;100.00;99287.22;4881644;29;20044;-73
2021/03/16 06:26:19;;;;;;;5.45;4.95;;;;;;;7.41;100.00;99287.22;4882241;29;20033;-73
2021/03/16 06:29:11;;;;;;;4.22;3.83;;;;;;;7.02;100.00;99293.47;4882538;29;20075;-74
2021/03/16 06:31:58;;;;;;;5.15;3.83;;;;;;;6.94;100.00;99291.94;4882330;29;20104;-73
2021/03/16 06:34:45;;;;;;;4.90;4.28;;;;;;;7.15;100.00;99289.66;4882200;29;20040;-76
2021/03/16 06:37:31;;;;;;;5.53;4.57;;;;;;;7.20;100.00;99298.19;4883288;29;20029;-72
2021/03/16 06:40:27;;;;;;;6.05;4.70;;;;;;;7.06;100.00;99300.31;4881662;29;20322;-72
2021/03/16 06:43:13;;;;;;;5.82;4.70;;;;;;;6.55;100.00;99313.78;4869586;29;20048;-72
2021/03/16 06:45:59;;;;;;;6.70;5.50;;;;;;;7.36;100.00;99309.91;4868335;29;20398;-72
2021/03/16 06:48:44;;;;;;;7.53;6.30;;;;;;;7.35;100.00;99297.78;4882044;29;20075;-72
2021/03/16 06:51:31;;;;;;;10.68;7.28;;;;;;;7.14;100.00;99289.69;4868265;29;20274;-73
2021/03/16 06:54:24;;;;;;;7.40;6.53;;;;;;;7.13;100.00;99312.28;4869561;29;20053;-74
2021/03/16 06:57:12;;;;;;;8.75;6.80;;;;;;;7.34;100.00;99316.06;4881468;29;20451;-73
2021/03/16 07:00:06;;;;;;;6.85;6.15;;;;;;;7.31;100.00;99306.56;4881795;29;20043;-73
2021/03/16 07:02:51;;;;;;;7.45;6.65;;;;;;;7.78;100.00;99310.47;4881576;29;20033;-73
2021/03/16 07:05:37;;;;;;;6.45;5.68;;;;;;;7.51;100.00;99314.72;4880733;29;20025;-75
2021/03/16 07:08:23;;;;;;;9.18;6.28;;;;;;;7.33;100.00;99319.56;4868510;29;20025;-76
2021/03/16 07:11:11;;;;;;;8.35;7.45;;;;;;;7.58;100.00;99308.44;4868439;29;20036;-75
2021/03/16 07:13:59;;;;;;;11.45;8.90;;;;;;;7.81;100.00;99315.59;4868819;29;20021;-74
2021/03/16 07:16:46;;;;;;;10.40;7.15;;;;;;;7.13;100.00;99322.69;4868362;29;20477;-75
2021/03/16 07:19:33;;;;;;;7.07;6.38;;;;;;;6.99;100.00;99330.00;4882553;29;20033;-75
2021/03/16 07:22:21;;;;;;;7.25;6.20;;;;;;;7.16;100.00;99332.19;4881121;29;20477;-75
2021/03/16 07:25:08;;;;;;;5.25;4.50;;;;;;;6.81;100.00;99337.41;4881487;29;20037;-75
2021/03/16 07:27:54;;;;;;;4.78;4.35;;;;;;;7.10;100.00;99332.31;4881152;29;20029;-75
2021/03/16 07:30:41;;;;;;;5.22;4.68;;;;;;;6.59;100.00;99338.81;4881131;29;20025;-75
2021/03/16 07:33:29;;;;;;;4.63;4.22;;;;;;;6.93;100.00;99344.91;4880725;29;20043;-75
2021/03/16 07:36:14;;;;;;;6.55;5.63;;;;;;;7.15;100.00;99344.34;4880673;29;20455;-75
2021/03/16 07:39:03;;;;;;;5.78;4.90;;;;;;;6.73;100.00;99341.94;4880608;29;20053;-74
2021/03/16 07:41:51;;;;;;;8.10;6.97;;;;;;;6.89;100.00;99344.16;4880935;29;20518;-76
2021/03/16 07:44:43;;;;;;;6.60;5.65;;;;;;;6.67;100.00;99348.13;4881339;29;20121;-75
2021/03/16 07:47:37;;;;;;;6.13;5.53;;;;;;;7.17;100.00;99362.53;4880672;29;20040;-75
2021/03/16 07:50:31;;;;;;;6.25;4.72;;;;;;;6.60;100.00;99357.00;4868808;29;20077;-75
2021/03/16 07:53:55;;;;;;;6.38;5.78;;;;;;;6.85;100.00;99359.88;4880517;29;20397;-76
2021/03/16 07:56:41;;;;;;;5.85;5.05;;;;;;;7.21;100.00;99353.75;4857730;29;20124;-75
2021/03/16 07:59:35;;;;;;;5.93;5.32;;;;;;;7.13;100.00;99347.88;4880571;29;20021;-75
2021/03/16 08:02:32;;;;;;;6.20;5.60;;;;;;;6.98;100.00;99356.94;4866578;29;20025;-74
2021/03/16 08:05:18;;;;;;;6.55;5.25;;;;;;;7.05;100.00;99355.03;4867471;29;20028;-74
2021/03/16 08:08:17;;;;;;;7.07;6.38;;;;;;;7.18;100.00;99349.47;4880194;29;20029;-75
2021/03/16 08:11:13;;;;;;;6.78;6.15;;;;;;;7.26;100.00;99355.34;4866818;29;20044;-75
2021/03/16 08:14:01;;;;;;;7.32;6.45;;;;;;;6.91;100.00;99362.34;4867626;29;20029;-74
2021/03/16 08:16:47;;;;;;;8.25;7.35;;;;;;;7.13;100.00;99374.78;4880928;29;20033;-74
2021/03/16 08:19:40;;;;;;;8.15;7.28;;;;;;;7.13;100.00;99376.53;4880098;29;20485;-75
2021/03/16 08:22:27;;;;;;;9.48;7.07;;;;;;;7.36;100.00;99379.41;4880175;29;20473;-74
2021/03/16 08:25:13;;;;;;;7.45;6.75;;;;;;;7.48;100.00;99373.88;4880883;29;20354;-76
2021/03/16 08:28:06;;;;;;;7.40;6.55;;;;;;;7.04;100.00;99372.41;4880549;29;20033;-74
2021/03/16 08:30:53;;;;;;;7.40;6.63;;;;;;;6.82;100.00;99373.81;4880443;29;20025;-75
2021/03/16 08:33:39;;;;;;;7.40;6.60;;;;;;;7.02;100.00;99376.78;4867180;29;20094;-75
2021/03/16 08:36:24;;;;;;;6.65;5.93;;;;;;;6.62;100.00;99372.56;4879946;29;20112;-76
2021/03/16 08:39:19;;;;;;;8.20;5.97;;;;;;;7.10;100.00;99379.19;4879180;29;20032;-75
2021/03/16 08:42:07;;;;;;;6.85;6.10;;;;;;;7.19;100.00;99379.00;4879096;29;20040;-76
2021/03/16 08:44:55;;;;;;;8.18;6.35;;;;;;;7.61;100.00;99370.91;4879668;29;20071;-74
2021/03/16 08:47:41;;;;;;;8.38;6.55;;;;;;;7.65;100.00;99372.53;4880520;29;20029;-74
2021/03/16 08:50:27;;;;;;;7.47;6.20;;;;;;;7.79;100.00;99375.59;4880390;29;20028;-76
2021/03/16 08:53:16;;;;;;;7.22;6.53;;;;;;;7.73;100.00;99375.78;4878883;29;20064;-76
2021/03/16 08:56:02;;;;;;;7.00;6.30;;;;;;;7.59;100.00;99384.88;4879591;29;20041;-75
2021/03/16 08:58:49;;;;;;;9.07;6.38;;;;;;;7.38;100.00;99381.06;4879990;29;20112;-74
2021/03/16 09:01:35;;;;;;;6.55;5.90;;;;;;;7.41;100.00;99374.91;4866612;29;20044;-76
2021/03/16 09:04:21;;;;;;;6.90;6.20;;;;;;;7.23;100.00;99380.63;4880859;29;20032;-75
2021/03/16 09:07:06;;;;;;;7.38;6.05;;;;;;;7.08;100.00;99388.81;4880126;29;20033;-74
2021/03/16 09:10:10;;;;;;;6.72;5.97;;;;;;;7.72;100.00;99387.09;4865811;29;20037;-74
2021/03/16 09:12:56;;;;;;;6.57;5.50;;;;;;;7.60;100.00;99397.00;4879597;29;20033;-74
2021/03/16 09:15:43;;;;;;;6.18;5.30;;;;;;;7.16;100.00;99400.72;4878920;29;20455;-76
2021/03/16 09:18:32;;;;;;;10.88;7.70;;;;;;;7.55;100.00;99394.50;4880982;29;20463;-75
2021/03/16 09:21:18;;;;;;;7.32;6.57;;;;;;;7.81;100.00;99388.59;4878844;29;20029;-75
2021/03/16 09:24:05;;;;;;;6.93;6.22;;;;;;;8.15;100.00;99392.81;4878918;29;20033;-74
2021/03/16 09:27:09;;;;;;;8.32;6.30;;;;;;;7.69;100.00;99404.56;4879770;29;20036;-75
2021/03/16 09:29:55;;;;;;;7.18;6.47;;;;;;;7.96;100.00;99396.84;4880275;29;20112;-75
2021/03/16 09:32:44;;;;;;;7.22;6.32;;;;;;;7.59;100.00;99406.56;4879439;29;20429;-75
2021/03/16 09:35:29;;;;;;;7.55;6.68;;;;;;;7.56;100.00;99419.66;4879419;29;20057;-75
2021/03/16 09:38:17;;;;;;;8.45;7.20;;;;;;;7.47;100.00;99406.03;4866228;29;20049;-75
2021/03/16 09:41:09;;;;;;;7.22;6.53;;;;;;;7.25;100.00;99412.69;4879623;29;20382;-74
2021/03/16 09:43:55;;;;;;;7.82;7.03;;;;;;;8.08;100.00;99401.72;4880597;29;20349;-74
2021/03/16 09:46:48;;;;;;;8.80;7.05;;;;;;;7.91;100.00;99408.28;4866993;29;20419;-75
2021/03/16 09:49:41;;;;;;;10.23;7.53;;;;;;;7.82;100.00;99418.97;4866882;29;20044;-75
2021/03/16 09:52:27;;;;;;;8.05;7.25;;;;;;;7.99;100.00;99417.63;4879383;29;20056;-74
2021/03/16 09:55:16;;;;;;;9.30;7.88;;;;;;;7.32;100.00;99427.28;4883891;29;20048;-74
2021/03/16 09:58:02;;;;;;;11.45;7.72;;;;;;;7.59;100.00;99416.16;4869639;29;20128;-74
2021/03/16 10:01:01;;;;;;;9.32;7.57;;;;;;;7.74;100.00;99420.94;4869583;29;20120;-75
2021/03/16 10:04:01;;;;;;;9.57;7.85;;;;;;;7.53;100.00;99437.13;4882989;29;20103;-73
2021/03/16 10:06:47;;;;;;;9.43;8.50;;;;;;;7.87;100.00;99431.00;4870634;29;20025;-74
2021/03/16 10:09:40;;;;;;;9.57;8.07;;;;;;;8.48;100.00;99435.38;4882752;29;20025;-74
2021/03/16 10:12:26;;;;;;;8.85;7.95;;;;;;;8.36;100.00;99431.34;4869834;29;20474;-73
2021/03/16 10:15:21;;;;;;;9.13;8.23;;;;;;;8.71;100.00;99438.16;4881898;29;20459;-73
2021/03/16 10:18:09;;;;;;;11.45;8.00;;;;;;;8.65;100.00;99431.34;4882878;29;20021;-73
2021/03/16 10:20:55;;;;;;;9.82;8.82;;;;;;;8.62;100.00;99441.03;4883159;29;20028;-73
2021/03/16 10:23:41;;;;;;;13.32;9.23;;;;;;;7.63;100.00;99444.69;4881942;29;20355;-73
2021/03/16 10:26:26;;;;;;;10.88;9.77;;;;;;;7.70;100.00;99443.63;4882558;29;20025;-74
2021/03/16 10:29:13;;;;;;;10.25;9.15;;;;;;;7.79;100.00;99446.00;4869046;29;20037;-73
2021/03/16 10:31:59;;;;;;;9.77;8.88;;;;;;;7.36;100.00;99457.56;4883270;29;20131;-75
2021/03/16 10:34:45;;;;;;;10.32;8.80;;;;;;;6.98;100.00;99452.38;4883586;29;20390;-74
2021/03/16 10:37:30;;;;;;;9.77;8.75;;;;;;;7.63;100.00;99457.72;4882275;29;20062;-74
2021/03/16 10:40:16;;;;;;;14.52;9.38;;;;;;;7.87;100.00;99454.47;4882052;29;20033;-74
2021/03/16 10:43:03;;;;;;;12.43;9.00;;;;;;;7.47;100.00;99455.56;4882476;29;20072;-74
2021/03/16 10:45:49;;;;;;;9.45;8.45;;;;;;;7.79;100.00;99455.53;4881547;29;20112;-74
2021/03/16 10:48:34;;;;;;;10.95;9.60;;;;;;;8.13;100.00;99452.03;4882786;29;20061;-76
2021/03/16 10:51:20;;;;;;;11.82;10.00;;;;;;;8.22;100.00;99449.19;4869075;29;20101;-75
2021/03/16 10:54:06;;;;;;;10.38;9.38;;;;;;;8.07;100.00;99446.09;4882448;29;20049;-74
2021/03/16 10:56:54;;;;;;;10.38;8.90;;;;;;;8.04;100.00;99446.19;4881047;29;20037;-74
2021/03/16 10:59:40;;;;;;;11.30;8.65;;;;;;;7.65;100.00;99447.25;4869694;29;20044;-75
2021/03/16 11:02:26;;;;;;;10.40;8.68;;;;;;;7.49;100.00;99452.00;4882553;29;20037;-76
2021/03/16 11:05:12;;;;;;;13.07;9.30;;;;;;;7.74;100.00;99447.00;4880709;29;20029;-75
2021/03/16 11:07:58;;;;;;;10.63;8.23;;;;;;;8.12;100.00;99444.22;4869164;29;20033;-76
2021/03/16 11:10:44;;;;;;;11.95;8.70;;;;;;;8.06;100.00;99445.25;4882030;29;20032;-75
2021/03/16 11:13:30;;;;;;;13.85;9.57;;;;;;;7.85;100.00;99447.59;4869116;29;20069;-73
2021/03/16 11:16:16;;;;;;;10.43;9.10;;;;;;;8.34;100.00;99434.91;4881732;29;20107;-73
2021/03/16 11:19:01;;;;;;;14.98;10.70;;;;;;;8.27;100.00;99436.84;4868288;29;20090;-75
2021/03/16 11:21:47;;;;;;;10.90;9.68;;;;;;;8.64;100.00;99434.03;4880838;29;20033;-74
2021/03/16 11:24:33;;;;;;;12.38;10.18;;;;;;;7.51;100.00;99451.97;4881450;29;20037;-75
2021/03/16 11:27:19;;;;;;;12.70;9.73;;;;;;;7.89;100.00;99451.81;4880927;29;20124;-76
2021/03/16 11:30:06;;;;;;;11.50;9.10;;;;;;;7.80;100.00;99446.84;4880892;29;20749;-73
2021/03/16 11:32:52;;;;;;;12.75;9.82;;;;;;;7.91;100.00;99447.41;4881718;29;20029;-75
2021/03/16 11:35:38;;;;;;;10.75;8.63;;;;;;;7.66;100.00;99455.03;4881426;29;20024;-75
2021/03/16 11:38:24;;;;;;;12.52;8.63;;;;;;;7.92;100.00;99446.53;4868630;29;20466;-75
2021/03/16 11:41:09;;;;;;;8.88;7.35;;;;;;;7.77;100.00;99442.59;4880996;29;20039;-74
2021/03/16 11:43:55;;;;;;;10.00;8.50;;;;;;;7.62;100.00;99444.72;4883376;29;20124;-75
2021/03/16 11:46:41;;;;;;;11.60;9.50;;;;;;;8.06;100.00;99432.22;4882175;29;20040;-76
2021/03/16 11:49:27;;;;;;;12.20;10.82;;;;;;;7.84;100.00;99433.69;4881204;29;20116;-76
2021/03/16 11:52:13;;;;;;;15.63;10.38;;;;;;;8.05;100.00;99424.44;4867300;29;20399;-75
2021/03/16 11:54:58;;;;;;;13.73;10.30;;;;;;;8.21;100.00;99424.00;4881335;29;20104;-76
2021/03/16 11:57:44;;;;;;;13.70;9.98;;;;;;;7.58;100.00;99425.72;4880506;29;20036;-77
2021/03/16 12:00:30;;;;;;;13.82;10.48;;;;;;;7.73;100.00;99427.91;4881160;29;20100;-75
2021/03/16 12:03:16;;;;;;;14.57;10.88;;;;;;;7.65;100.00;99426.41;4881060;29;20033;-72
2021/03/16 12:06:02;;;;;;;10.50;8.48;;;;;;;7.85;100.00;99418.91;4868054;29;20362;-77
2021/03/16 12:08:48;;;;;;;12.70;8.68;;;;;;;8.31;100.00;99412.38;4881349;29;20108;-75
2021/03/16 12:11:35;;;;;;;11.65;8.93;;;;;;;8.56;100.00;99412.53;4879989;29;20048;-76
2021/03/16 12:14:23;;;;;;;12.93;9.20;;;;;;;8.24;100.00;99412.63;4881703;29;20044;-76
2021/03/16 12:17:11;;;;;;;10.30;7.65;;;;;;;8.08;100.00;99408.69;4881778;29;20389;-75
2021/03/16 12:19:56;;;;;;;12.95;7.68;;;;;;;8.23;100.00;99410.88;4881633;29;20033;-76
2021/03/16 12:22:43;;;;;;;9.27;7.10;;;;;;;8.32;100.00;99414.09;4880557;29;20123;-75
2021/03/16 12:25:34;;;;;;;6.72;6.00;;;;;;;8.39;100.00;99407.78;4881544;29;20449;-74
2021/03/16 12:28:20;;;;;;;7.97;5.90;;;;;;;8.28;100.00;99409.84;4880762;29;20048;-74
2021/03/16 12:31:06;;;;;;;7.70;6.65;;;;;;;7.94;100.00;99411.69;4881530;29;20378;-75
2021/03/16 12:33:52;;;;;;;9.10;6.68;;;;;;;8.05;100.00;99411.38;4879583;29;20061;-73
2021/03/16 12:36:38;;;;;;;10.90;8.23;;;;;;;8.12;100.00;99412.94;4880180;29;20029;-72
2021/03/16 12:39:23;;;;;;;11.77;7.70;;;;;;;8.28;100.00;99419.44;4879218;29;20060;-73
2021/03/16 12:42:10;;;;;;;7.82;6.90;;;;;;;8.00;100.00;99434.13;4879830;29;20029;-74
2021/03/16 12:44:56;;;;;;;8.23;6.82;;;;;;;8.43;100.00;99430.28;4880437;29;20043;-74
2021/03/16 12:47:42;;;;;;;33.75;25.48;;;;;;;7.91;100.00;99429.16;4880289;29;20025;-74
2021/03/16 12:50:27;;;;;;;46.72;36.05;;;;;;;8.42;100.00;99433.81;4879696;29;20021;-75
2021/03/16 12:53:16;;;;;;;40.65;31.02;;;;;;;8.12;100.00;99429.41;4879636;29;20049;-75
2021/03/16 12:56:02;;;;;;;27.30;20.60;;;;;;;7.99;100.00;99440.22;4880674;29;20029;-74
2021/03/16 12:59:05;;;;;;;35.63;28.45;;;;;;;8.13;100.00;99432.88;4880054;29;20032;-74
2021/03/16 13:01:51;;;;;;;18.90;14.30;;;;;;;7.94;100.00;99436.91;4880788;29;20116;-74
2021/03/16 13:04:38;;;;;;;22.35;16.88;;;;;;;7.85;100.00;99434.53;4866357;29;20033;-74
2021/03/16 13:07:24;;;;;;;14.13;10.90;;;;;;;8.09;100.00;99433.88;4879888;29;20029;-75
2021/03/16 13:10:10;;;;;;;10.00;7.32;;;;;;;7.72;100.00;99443.59;4878948;29;20032;-76
2021/03/16 13:12:56;;;;;;;8.20;6.53;;;;;;;7.89;100.00;99439.66;4880800;29;20058;-75
2021/03/16 13:15:42;;;;;;;10.40;8.75;;;;;;;8.30;100.00;99442.00;4879885;29;20616;-74
2021/03/16 13:18:28;;;;;;;13.27;9.30;;;;;;;7.99;100.00;99442.84;4879464;29;20048;-74
2021/03/16 13:21:13;;;;;;;8.38;7.22;;;;;;;8.14;100.00;99437.22;4879397;29;20091;-74
2021/03/16 13:24:00;;;;;;;9.38;7.18;;;;;;;8.32;100.00;99436.72;4878594;29;20029;-74
2021/03/16 13:26:45;;;;;;;9.20;7.30;;;;;;;8.02;100.00;99453.19;4880030;29;20112;-73
2021/03/16 13:29:34;;;;;;;7.97;5.78;;;;;;;7.92;100.00;99449.13;4883440;29;20467;-74
2021/03/16 13:32:20;;;;;;;9.43;6.43;;;;;;;7.94;100.00;99452.53;4869987;29;20367;-73
2021/03/16 13:35:06;;;;;;;10.05;6.75;;;;;;;8.35;100.00;99450.53;4883016;29;20502;-73
2021/03/16 13:37:52;;;;;;;9.75;7.60;;;;;;;8.05;100.00;99453.97;4883197;29;20088;-74
2021/03/16 13:40:42;;;;;;;10.00;7.75;;;;;;;8.00;100.00;99455.00;4870674;29;20044;-74
2021/03/16 13:43:28;;;;;;;8.18;7.35;;;;;;;8.29;100.00;99449.84;4870009;29;20075;-75
2021/03/16 13:46:14;;;;;;;10.50;8.48;;;;;;;8.47;100.00;99457.13;4882460;29;20514;-73
2021/03/16 13:48:59;;;;;;;7.40;6.28;;;;;;;8.12;100.00;99454.66;4883064;29;20036;-74
2021/03/16 13:51:45;;;;;;;8.00;6.63;;;;;;;8.13;100.00;99458.97;4881652;29;20041;-74
2021/03/16 13:54:31;;;;;;;7.45;6.30;;;;;;;7.60;100.00;99467.38;4882462;29;20039;-74
2021/03/16 13:57:17;;;;;;;8.25;6.68;;;;;;;7.33;100.00;99473.25;4882675;29;20029;-74
2021/03/16 14:00:06;;;;;;;8.15;6.97;;;;;;;7.90;100.00;99471.78;4882818;29;20029;-74
2021/03/16 14:02:51;;;;;;;6.30;5.65;;;;;;;8.06;100.00;99470.47;4882998;29;20039;-74
2021/03/16 14:05:37;;;;;;;8.77;6.05;;;;;;;8.18;100.00;99473.59;4882985;29;20123;-75
2021/03/16 14:08:24;;;;;;;7.18;6.05;;;;;;;7.78;100.00;99475.56;4869760;29;20047;-75
2021/03/16 14:11:09;;;;;;;21.83;15.90;;;;;;;7.80;100.00;99475.53;4882367;29;20112;-74
2021/03/16 14:13:57;;;;;;;8.45;6.32;;;;;;;7.40;100.00;99478.25;4883435;29;20370;-75
2021/03/16 14:16:49;;;;;;;9.43;5.50;;;;;;;7.69;100.00;99478.41;4883890;29;20053;-73
2021/03/16 14:19:36;;;;;;;7.30;5.60;;;;;;;7.95;100.00;99478.59;4883916;29;20112;-75
2021/03/16 14:22:22;;;;;;;7.68;6.28;;;;;;;7.82;100.00;99476.34;4869299;29;20036;-75
2021/03/16 14:25:09;;;;;;;8.07;6.10;;;;;;;7.86;100.00;99480.56;4882619;29;20048;-74